Kimble County Airport
KJCT : now visible

Airfield :











YOU CAN JOIN US ON...

 
LOGIN :

Register | Disclaimer

   EN    FR    IT 

 









Legend :    VFR   Marginal VFR   IFR   Intensive IFR   Very Intensive IFR
Visi :
Ceiling :
>= 8 km
>= 3000ft
5 to 8 km
1000 to 3000 ft
1500m to 5 km
500 to 1000 ft
800 to 1500m
200 to 500 ft
< 800m
< 200 ft
Symbols :   Thunderstorms  Fog  Heavy snow  Heavy precipitations  Wind > 20 kt






- Airport Elevation : 1749 ft


KJCT - Kimble County

CURRENT METAR :
  • 140551Z AUTO 31003KT 10SM CLR 04/01 A3009 RMK AO2 SLP180 T00440011 10072 20039 400831022 50002

EXPIRED METARs :
  • 140451Z AUTO 24005KT 10SM CLR 04/01 A3010 RMK AO2 SLP183 T00440006
  • 140351Z AUTO 22005KT 10SM BKN120 04/01 A3009 RMK AO2 SLP181 T00440006

TAF KJCT
Valid from the 14 at 06:00 until the 15 at 06:00 UTC


140520Z 1406/1506 19010KT P6SM SCT025 BKN050
FM140700 VRB05KT P6SM BKN025
FM140900 VRB04KT P6SM BKN007
FM141300 01008KT P6SM BKN015
FM141600 01011G18KT P6SM SCT250
FM142200 36008KT P6SM SKC



MET'MAP, your aeronautical weather chart ! - Copyright ORBIFLY December 2007 - Disclaimer

ORBIFLY MET'MAP TEAM :

Programming & Development : Alexandra Zaïnal
Concept & Development : Baudouin d'Aumeries
Co-Development & Prog : Marc-Olivier Méhu
Technical & hardware support : Manuel Goepfert

Contact : metmap@orbifly.com




SOURCES & CREDITS :

   NOAA       Earth
Advisory